createdAt,value
2022-09-21T00:00:45.759Z,2.10
2022-09-21T00:16:09.085Z,1.90
2022-09-21T00:31:18.330Z,2.20
2022-09-21T01:01:31.919Z,3.20
2022-09-21T01:16:50.761Z,3.10
2022-09-21T01:47:14.660Z,3.30
2022-09-21T02:02:33.773Z,4.10
2022-09-21T02:17:47.270Z,2.90
2022-09-21T02:33:20.996Z,3.10
2022-09-21T02:48:56.990Z,2.20
2022-09-21T03:04:01.224Z,4.20
2022-09-21T03:19:05.175Z,3.10
2022-09-21T03:34:08.586Z,2.40
2022-09-21T03:49:12.288Z,2.10
2022-09-21T04:04:35.671Z,2.20
2022-09-21T04:19:39.332Z,2.10
2022-09-21T04:34:42.740Z,2.90
2022-09-21T04:49:45.947Z,1.80
2022-09-21T05:04:51.125Z,1.80
2022-09-21T05:19:55.127Z,2.30
2022-09-21T05:35:16.307Z,2.30
2022-09-21T05:50:26.099Z,5.50
2022-09-21T06:05:29.187Z,6.10
2022-09-21T06:20:32.821Z,5.80
2022-09-21T06:35:37.439Z,2.50
2022-09-21T06:50:40.992Z,3.40
2022-09-21T07:05:47.886Z,4.30
2022-09-21T07:20:51.287Z,2.60
2022-09-21T07:35:58.539Z,4.00
2022-09-21T07:51:13.453Z,3.30
2022-09-21T08:06:17.155Z,3.00
2022-09-21T08:21:23.129Z,1.80
2022-09-21T08:36:26.894Z,2.10
2022-09-21T08:51:40.980Z,1.90
2022-09-21T09:07:09.117Z,1.60
2022-09-21T09:22:17.804Z,1.30
2022-09-21T09:52:29.374Z,12.60
2022-09-21T10:07:38.657Z,1.50
2022-09-21T10:22:48.861Z,1.00
2022-09-21T10:38:22.149Z,0.90
2022-09-21T10:53:32.613Z,1.40
2022-09-21T11:08:42.879Z,2.60
2022-09-21T11:23:46.445Z,1.00
2022-09-21T11:39:27.433Z,1.20
2022-09-21T11:54:52.226Z,0.60
2022-09-21T12:10:03.655Z,1.40
2022-09-21T12:25:17.190Z,15.00
2022-09-21T12:40:38.352Z,0.90
2022-09-21T12:55:57.198Z,1.80
2022-09-21T13:11:08.096Z,9.40
2022-09-21T13:26:14.442Z,4.70
2022-09-21T13:41:17.921Z,3.80
2022-09-21T13:56:25.928Z,2.30
2022-09-21T14:11:32.052Z,3.90
2022-09-21T14:26:42.811Z,2.70
2022-09-21T14:41:50.492Z,3.30
2022-09-21T14:57:06.209Z,7.90
2022-09-21T15:12:26.621Z,7.30
2022-09-21T15:27:33.964Z,7.30
2022-09-21T15:43:07.057Z,5.70
2022-09-21T15:58:32.316Z,5.70
2022-09-21T16:13:54.747Z,5.10
2022-09-21T16:29:20.027Z,4.30
2022-09-21T16:44:26.945Z,5.80
2022-09-21T16:59:31.010Z,29.70
2022-09-21T17:14:36.541Z,11.10
2022-09-21T17:29:47.798Z,7.50
2022-09-21T17:45:04.402Z,7.50
2022-09-21T18:00:22.646Z,8.60
2022-09-21T18:15:45.755Z,32.50
2022-09-21T18:31:05.716Z,41.40
2022-09-21T18:46:15.607Z,22.90
2022-09-21T19:01:23.059Z,13.80
2022-09-21T19:16:39.484Z,13.30
2022-09-21T19:31:43.034Z,6.70
2022-09-21T19:47:10.917Z,7.10
2022-09-21T20:02:32.927Z,5.60
2022-09-21T20:17:46.358Z,6.20
2022-09-21T20:32:56.406Z,5.30
2022-09-21T20:48:13.647Z,3.90
2022-09-21T21:03:17.697Z,3.40
2022-09-21T21:18:21.052Z,3.60
2022-09-21T21:33:24.488Z,3.70
2022-09-21T21:48:27.839Z,3.70
2022-09-21T22:03:31.263Z,5.20
2022-09-21T22:18:38.503Z,4.70
2022-09-21T22:33:41.828Z,3.20
2022-09-21T22:48:45.888Z,3.80
2022-09-21T23:03:51.291Z,5.50
2022-09-21T23:18:55.433Z,5.90
2022-09-21T23:34:12.006Z,6.50
2022-09-21T23:49:15.571Z,5.80
